Time;durP1;ratioP1;P1;durP2;ratioP2;P2;SDS_P1;SDS_P2;PMS_P1;PMS_P2;Temp;Humidity;BMP_temperature;BMP_pressure;BME280_temperature;BME280_humidity;BME280_pressure;Samples;Min_cycle;Max_cycle;Signal;HPM_P1;HPM_P2
2022/01/05 00:01:09;;;;;;;51.40;29.58;;;;;;;;;;5017587;28;20030;-93
2022/01/05 00:03:36;;;;;;;46.25;30.08;;;;;;;;;;5017274;28;20029;-91
2022/01/05 00:06:03;;;;;;;46.60;29.10;;;;;;;;;;5016841;28;20023;-90
2022/01/05 00:08:29;;;;;;;42.35;26.65;;;;;;;;;;5016408;28;20019;-91
2022/01/05 00:10:56;;;;;;;42.28;26.02;;;;;;;;;;5017494;28;20057;-93
2022/01/05 00:13:22;;;;;;;45.25;25.95;;;;;;;;;;5017551;28;20030;-92
2022/01/05 00:15:48;;;;;;;42.17;24.27;;;;;;;;;;5018707;28;20030;-91
2022/01/05 00:18:14;;;;;;;37.50;23.58;;;;;;;;;;5021101;28;20392;-92
2022/01/05 00:20:41;;;;;;;36.17;23.08;;;;;;;;;;5019998;28;20037;-93
2022/01/05 00:23:07;;;;;;;37.72;22.35;;;;;;;;;;5021172;28;20026;-92
2022/01/05 00:25:33;;;;;;;33.80;22.10;;;;;;;;;;5021325;28;20026;-92
2022/01/05 00:27:59;;;;;;;32.42;20.95;;;;;;;;;;5021118;28;20018;-92
2022/01/05 00:30:25;;;;;;;30.10;20.30;;;;;;;;;;5021025;28;20033;-91
2022/01/05 00:32:52;;;;;;;33.13;19.95;;;;;;;;;;5019968;28;20022;-90
2022/01/05 00:35:18;;;;;;;28.92;19.25;;;;;;;;;;5020106;28;20416;-91
2022/01/05 00:37:44;;;;;;;32.53;20.38;;;;;;;;;;5020646;28;20053;-91
2022/01/05 00:40:10;;;;;;;31.10;19.45;;;;;;;;;;5020865;28;20379;-91
2022/01/05 00:42:36;;;;;;;29.77;19.02;;;;;;;;;;5021296;28;20097;-90
2022/01/05 00:45:03;;;;;;;33.28;19.75;;;;;;;;;;5020920;28;20030;-89
2022/01/05 00:47:29;;;;;;;35.00;21.17;;;;;;;;;;5020708;28;20026;-89
2022/01/05 00:49:55;;;;;;;31.38;19.58;;;;;;;;;;5020990;28;20021;-89
2022/01/05 00:52:21;;;;;;;34.90;19.60;;;;;;;;;;5019707;28;20125;-90
2022/01/05 00:54:47;;;;;;;38.10;20.88;;;;;;;;;;5020675;28;20049;-89
2022/01/05 00:57:13;;;;;;;42.33;22.08;;;;;;;;;;5020423;28;20025;-89
2022/01/05 00:59:39;;;;;;;45.20;21.63;;;;;;;;;;5019617;28;20018;-89
2022/01/05 01:02:06;;;;;;;47.45;22.10;;;;;;;;;;5019483;28;20026;-89
2022/01/05 01:04:32;;;;;;;34.97;21.40;;;;;;;;;;5019400;28;20034;-90
2022/01/05 01:06:58;;;;;;;40.03;21.77;;;;;;;;;;5020530;28;20116;-90
2022/01/05 01:09:24;;;;;;;55.55;23.98;;;;;;;;;;5019355;28;20022;-91
2022/01/05 01:11:50;;;;;;;55.67;25.92;;;;;;;;;;5020198;28;20048;-92
2022/01/05 01:14:16;;;;;;;58.15;25.88;;;;;;;;;;5019421;28;20018;-91
2022/01/05 01:16:42;;;;;;;64.82;27.15;;;;;;;;;;5019052;28;20320;-90
2022/01/05 01:19:09;;;;;;;56.75;26.55;;;;;;;;;;5019023;28;20041;-90
2022/01/05 01:21:35;;;;;;;50.45;24.83;;;;;;;;;;5019916;28;20030;-91
2022/01/05 01:24:01;;;;;;;41.88;22.33;;;;;;;;;;5020235;28;20109;-90
2022/01/05 01:26:28;;;;;;;40.53;21.08;;;;;;;;;;5019081;28;20112;-92
2022/01/05 01:28:55;;;;;;;38.47;20.27;;;;;;;;;;5019946;28;20030;-92
2022/01/05 01:31:21;;;;;;;35.65;21.77;;;;;;;;;;5018851;28;20029;-89
2022/01/05 01:33:48;;;;;;;38.35;21.88;;;;;;;;;;5018923;28;20092;-89
2022/01/05 01:36:14;;;;;;;34.80;21.65;;;;;;;;;;5019392;28;20041;-94
2022/01/05 01:38:41;;;;;;;40.60;22.88;;;;;;;;;;5018789;28;20328;-93
2022/01/05 01:41:08;;;;;;;38.13;23.33;;;;;;;;;;5019827;28;20339;-93
2022/01/05 01:43:34;;;;;;;38.72;23.52;;;;;;;;;;5018609;28;20022;-89
2022/01/05 01:46:00;;;;;;;36.88;22.67;;;;;;;;;;5018603;28;20116;-89
2022/01/05 01:48:26;;;;;;;37.60;23.25;;;;;;;;;;5019438;28;20026;-90
2022/01/05 01:50:52;;;;;;;35.22;22.13;;;;;;;;;;5019190;28;20113;-90
2022/01/05 01:53:18;;;;;;;33.47;21.45;;;;;;;;;;5019528;28;20061;-91
2022/01/05 01:55:47;;;;;;;36.17;22.35;;;;;;;;;;5018449;28;20033;-89
2022/01/05 01:58:13;;;;;;;39.38;21.95;;;;;;;;;;5019171;28;20026;-89
2022/01/05 02:00:39;;;;;;;38.38;21.95;;;;;;;;;;5019270;28;20030;-89
2022/01/05 02:03:05;;;;;;;36.85;21.40;;;;;;;;;;5018177;28;20030;-90
2022/01/05 02:05:31;;;;;;;34.42;19.67;;;;;;;;;;5018168;28;20045;-90
2022/01/05 02:07:57;;;;;;;33.50;18.55;;;;;;;;;;5019086;28;20429;-90
2022/01/05 02:10:24;;;;;;;27.65;17.67;;;;;;;;;;5018136;28;20109;-91
2022/01/05 02:12:50;;;;;;;24.42;17.33;;;;;;;;;;5019131;28;20026;-90
2022/01/05 02:15:16;;;;;;;28.90;18.30;;;;;;;;;;5018100;28;20412;-90
2022/01/05 02:18:57;;;;;;;28.95;16.70;;;;;;;;;;5018255;28;20026;-90
2022/01/05 02:20:36;;;;;;;28.20;17.55;;;;;;;;;;5018642;28;20022;-90
2022/01/05 02:23:03;;;;;;;25.20;15.93;;;;;;;;;;5018999;28;20026;-90
2022/01/05 02:25:30;;;;;;;26.48;16.70;;;;;;;;;;5018138;28;20034;-90
2022/01/05 02:27:56;;;;;;;23.45;15.90;;;;;;;;;;5017636;28;20037;-91
2022/01/05 02:30:26;;;;;;;29.20;17.73;;;;;;;;;;5019032;28;20033;-93
2022/01/05 02:32:53;;;;;;;26.92;17.60;;;;;;;;;;5018878;28;20025;-93
2022/01/05 02:35:19;;;;;;;28.38;17.45;;;;;;;;;;5018808;28;20076;-93
2022/01/05 02:37:46;;;;;;;26.35;16.58;;;;;;;;;;5017893;28;20041;-93
2022/01/05 02:40:14;;;;;;;27.27;17.10;;;;;;;;;;5018762;28;20030;-92
2022/01/05 02:42:41;;;;;;;28.35;16.23;;;;;;;;;;5018539;28;20029;-91
2022/01/05 02:45:07;;;;;;;26.52;15.80;;;;;;;;;;5018627;28;20312;-92
2022/01/05 02:47:33;;;;;;;24.83;15.20;;;;;;;;;;5017558;28;20068;-91
2022/01/05 02:50:00;;;;;;;26.25;15.20;;;;;;;;;;5018445;28;20033;-90
2022/01/05 02:52:26;;;;;;;29.92;15.63;;;;;;;;;;5018387;28;20033;-90
2022/01/05 02:54:52;;;;;;;23.92;16.08;;;;;;;;;;5017575;28;20439;-89
2022/01/05 02:57:18;;;;;;;32.92;16.23;;;;;;;;;;5017286;28;20034;-88
2022/01/05 02:59:44;;;;;;;27.27;15.25;;;;;;;;;;5018483;28;20026;-90
2022/01/05 03:02:11;;;;;;;25.33;14.95;;;;;;;;;;5017135;28;20100;-90
2022/01/05 03:04:37;;;;;;;27.45;15.52;;;;;;;;;;5017369;28;20120;-89
2022/01/05 03:07:03;;;;;;;22.40;14.40;;;;;;;;;;5017369;28;20029;-89
2022/01/05 03:09:29;;;;;;;26.73;14.55;;;;;;;;;;5018142;28;20026;-89
2022/01/05 03:11:55;;;;;;;24.67;14.48;;;;;;;;;;5017142;28;20409;-90
2022/01/05 03:14:21;;;;;;;27.08;15.10;;;;;;;;;;5017116;28;20057;-89
2022/01/05 03:16:47;;;;;;;24.42;13.27;;;;;;;;;;5017969;28;20106;-90
2022/01/05 03:19:13;;;;;;;23.05;14.70;;;;;;;;;;5017201;28;20030;-89
2022/01/05 03:21:40;;;;;;;22.65;13.60;;;;;;;;;;5018104;28;20033;-91
2022/01/05 03:24:06;;;;;;;27.80;14.05;;;;;;;;;;5017023;28;20053;-91
2022/01/05 03:26:32;;;;;;;25.38;13.27;;;;;;;;;;5017114;28;20022;-92
2022/01/05 03:28:58;;;;;;;24.25;13.82;;;;;;;;;;5017910;28;20026;-91
2022/01/05 03:31:24;;;;;;;24.88;13.93;;;;;;;;;;5017760;28;20393;-91
2022/01/05 03:33:50;;;;;;;28.95;14.05;;;;;;;;;;5017947;28;20060;-91
2022/01/05 03:36:16;;;;;;;21.63;14.15;;;;;;;;;;5017753;28;20025;-89
2022/01/05 03:38:42;;;;;;;27.17;13.95;;;;;;;;;;5017761;28;20034;-91
2022/01/05 03:41:08;;;;;;;28.48;15.40;;;;;;;;;;5017553;28;20348;-90
2022/01/05 03:43:34;;;;;;;29.08;14.68;;;;;;;;;;5017577;28;20034;-91
2022/01/05 03:46:00;;;;;;;23.15;13.98;;;;;;;;;;5017047;28;20018;-90
2022/01/05 03:48:26;;;;;;;25.60;15.48;;;;;;;;;;5017861;28;20026;-90
2022/01/05 03:50:52;;;;;;;29.75;15.38;;;;;;;;;;5020217;28;20157;-91
2022/01/05 03:53:19;;;;;;;26.23;15.65;;;;;;;;;;5021811;28;20036;-92
2022/01/05 03:55:46;;;;;;;27.70;16.27;;;;;;;;;;5021654;28;20044;-92
2022/01/05 03:58:12;;;;;;;29.52;17.70;;;;;;;;;;5021684;28;20067;-92
2022/01/05 04:00:41;;;;;;;30.48;18.30;;;;;;;;;;5021492;28;20041;-93
2022/01/05 04:03:07;;;;;;;34.20;20.40;;;;;;;;;;5021451;28;20022;-92
2022/01/05 04:05:33;;;;;;;31.58;20.17;;;;;;;;;;5009846;28;20022;-91
2022/01/05 04:08:00;;;;;;;37.03;22.60;;;;;;;;;;4987360;28;20114;-92
2022/01/05 04:10:26;;;;;;;36.88;21.42;;;;;;;;;;5002328;28;20105;-90
2022/01/05 04:12:52;;;;;;;34.60;20.90;;;;;;;;;;5001439;28;20409;-92
2022/01/05 04:15:18;;;;;;;36.30;21.17;;;;;;;;;;5001397;28;20404;-91
2022/01/05 04:17:45;;;;;;;33.72;19.73;;;;;;;;;;5001610;28;20038;-90
2022/01/05 04:20:12;;;;;;;33.08;19.67;;;;;;;;;;5000380;28;20042;-92
2022/01/05 04:22:38;;;;;;;31.00;17.88;;;;;;;;;;5000590;28;20033;-92
2022/01/05 04:25:05;;;;;;;28.17;17.67;;;;;;;;;;4999890;28;20031;-92
2022/01/05 04:27:31;;;;;;;28.52;16.80;;;;;;;;;;4995311;28;20058;-92
2022/01/05 04:29:57;;;;;;;32.30;16.85;;;;;;;;;;5001505;28;20061;-92
2022/01/05 04:32:23;;;;;;;30.25;16.75;;;;;;;;;;5001606;28;20029;-90
2022/01/05 04:34:49;;;;;;;25.75;16.23;;;;;;;;;;4990711;28;20039;-90
2022/01/05 04:37:15;;;;;;;26.10;15.73;;;;;;;;;;4981687;28;20043;-89
2022/01/05 04:39:42;;;;;;;24.60;14.68;;;;;;;;;;4983333;28;20027;-90
2022/01/05 04:42:08;;;;;;;30.05;15.15;;;;;;;;;;5001180;28;20040;-90
2022/01/05 04:44:34;;;;;;;30.63;14.98;;;;;;;;;;4982687;28;20041;-90
2022/01/05 04:47:00;;;;;;;24.65;14.55;;;;;;;;;;4981454;28;20052;-91
2022/01/05 04:49:26;;;;;;;24.08;14.93;;;;;;;;;;4980805;28;20464;-92
2022/01/05 04:51:52;;;;;;;25.15;15.70;;;;;;;;;;4980654;28;20050;-90
2022/01/05 04:54:18;;;;;;;25.80;14.45;;;;;;;;;;4981419;28;20026;-91
2022/01/05 04:56:44;;;;;;;23.92;15.27;;;;;;;;;;4980745;28;20027;-94
2022/01/05 04:59:10;;;;;;;27.27;15.02;;;;;;;;;;4980783;28;20030;-92
2022/01/05 05:01:37;;;;;;;23.73;14.77;;;;;;;;;;4987072;28;20325;-93
2022/01/05 05:04:03;;;;;;;21.60;13.73;;;;;;;;;;4984813;28;20373;-93
2022/01/05 05:06:29;;;;;;;25.02;14.70;;;;;;;;;;4999129;28;20054;-91
2022/01/05 05:08:55;;;;;;;26.05;15.60;;;;;;;;;;5000129;28;20393;-93
2022/01/05 05:11:21;;;;;;;30.23;17.42;;;;;;;;;;5001002;28;20026;-92
2022/01/05 05:13:47;;;;;;;22.05;14.48;;;;;;;;;;4988604;28;20058;-93
2022/01/05 05:16:13;;;;;;;22.70;14.07;;;;;;;;;;4980143;28;20063;-93
2022/01/05 05:18:39;;;;;;;21.80;13.90;;;;;;;;;;4989779;28;20417;-93
2022/01/05 05:21:05;;;;;;;23.77;14.48;;;;;;;;;;4988001;28;20050;-94
2022/01/05 05:23:31;;;;;;;22.85;14.63;;;;;;;;;;4980842;28;20019;-93
2022/01/05 05:25:58;;;;;;;23.30;14.50;;;;;;;;;;4992075;28;20057;-93
2022/01/05 05:28:24;;;;;;;23.52;14.48;;;;;;;;;;5019422;28;20312;-93
2022/01/05 05:30:50;;;;;;;26.17;14.55;;;;;;;;;;4984184;28;20106;-90
2022/01/05 05:33:16;;;;;;;24.42;14.70;;;;;;;;;;4989305;28;20030;-90
2022/01/05 05:35:42;;;;;;;22.05;14.38;;;;;;;;;;4999983;28;20034;-89
2022/01/05 05:38:09;;;;;;;23.70;14.25;;;;;;;;;;4999436;28;20341;-91
2022/01/05 05:40:35;;;;;;;25.58;15.27;;;;;;;;;;4999314;28;20116;-90
2022/01/05 05:43:01;;;;;;;27.00;16.35;;;;;;;;;;5000245;28;20033;-92
2022/01/05 05:45:27;;;;;;;24.88;15.73;;;;;;;;;;4986199;28;20058;-91
2022/01/05 05:47:53;;;;;;;29.27;16.13;;;;;;;;;;4999847;28;20026;-93
2022/01/05 05:50:20;;;;;;;34.05;16.42;;;;;;;;;;4999250;28;20429;-89
2022/01/05 05:56:14;;;;;;;39.20;18.73;;;;;;;;;;4993417;28;20022;-90
2022/01/05 05:58:40;;;;;;;33.05;17.88;;;;;;;;;;4980341;28;20317;-91
2022/01/05 06:01:06;;;;;;;32.28;17.15;;;;;;;;;;5017160;28;20044;-90
2022/01/05 06:03:32;;;;;;;30.42;14.50;;;;;;;;;;5019325;28;20050;-91
2022/01/05 06:05:59;;;;;;;34.00;18.80;;;;;;;;;;5019669;28;20457;-89
2022/01/05 06:08:25;;;;;;;30.52;16.88;;;;;;;;;;4993696;28;20034;-89
2022/01/05 06:10:51;;;;;;;26.92;15.25;;;;;;;;;;4997612;28;20157;-89
2022/01/05 06:13:17;;;;;;;27.75;15.90;;;;;;;;;;4997912;28;20030;-90
2022/01/05 06:15:43;;;;;;;27.25;16.00;;;;;;;;;;4999625;28;20548;-89
2022/01/05 06:18:09;;;;;;;24.35;14.55;;;;;;;;;;4997805;28;20026;-89
2022/01/05 06:20:35;;;;;;;27.85;15.90;;;;;;;;;;4998316;28;20073;-89
2022/01/05 06:26:05;;;;;;;25.83;15.95;;;;;;;;;;4999440;28;20033;-89
2022/01/05 06:28:31;;;;;;;25.08;15.25;;;;;;;;;;4999192;28;20022;-89
2022/01/05 06:30:57;;;;;;;21.90;13.85;;;;;;;;;;4997614;28;20027;-90
2022/01/05 06:33:23;;;;;;;23.15;14.40;;;;;;;;;;4997704;28;20053;-89
2022/01/05 06:35:49;;;;;;;20.80;14.40;;;;;;;;;;4998249;28;20081;-89
2022/01/05 06:38:15;;;;;;;30.20;15.57;;;;;;;;;;4998807;28;20054;-89
2022/01/05 06:40:41;;;;;;;27.00;15.63;;;;;;;;;;4998797;28;20054;-89
2022/01/05 06:43:07;;;;;;;27.85;17.35;;;;;;;;;;4999176;28;20110;-89
2022/01/05 06:45:33;;;;;;;30.58;17.42;;;;;;;;;;4997997;28;20030;-90
2022/01/05 06:47:59;;;;;;;30.30;16.98;;;;;;;;;;4998679;28;20325;-89
2022/01/05 06:50:26;;;;;;;31.70;17.92;;;;;;;;;;4998090;28;20361;-89
2022/01/05 06:52:55;;;;;;;32.38;18.85;;;;;;;;;;4998995;28;20033;-89
2022/01/05 06:55:21;;;;;;;31.63;17.80;;;;;;;;;;4998901;28;20030;-91
2022/01/05 06:57:47;;;;;;;37.00;20.63;;;;;;;;;;4997703;28;20066;-89
2022/01/05 07:00:14;;;;;;;35.65;22.23;;;;;;;;;;4998856;28;20050;-90
2022/01/05 07:02:40;;;;;;;35.92;22.05;;;;;;;;;;4998261;28;20031;-90
2022/01/05 07:05:07;;;;;;;32.78;20.10;;;;;;;;;;4997682;28;20405;-92
2022/01/05 07:07:34;;;;;;;28.45;18.30;;;;;;;;;;4997558;28;20025;-89
2022/01/05 07:10:01;;;;;;;38.40;21.15;;;;;;;;;;4998590;28;20091;-92
2022/01/05 07:12:27;;;;;;;29.42;18.65;;;;;;;;;;4998708;28;20026;-90
2022/01/05 07:14:53;;;;;;;28.70;18.38;;;;;;;;;;4997863;28;20022;-90
2022/01/05 07:17:19;;;;;;;35.50;24.50;;;;;;;;;;4997544;28;20089;-91
2022/01/05 07:19:45;;;;;;;44.47;32.83;;;;;;;;;;4997357;28;20049;-90
2022/01/05 07:22:11;;;;;;;35.17;25.60;;;;;;;;;;4998147;28;20026;-91
2022/01/05 07:24:37;;;;;;;27.83;17.50;;;;;;;;;;4998045;28;20050;-90
2022/01/05 07:27:03;;;;;;;28.83;17.83;;;;;;;;;;4998211;28;20022;-90
2022/01/05 07:29:30;;;;;;;29.13;16.52;;;;;;;;;;4998373;28;20030;-90
2022/01/05 07:31:56;;;;;;;33.97;20.15;;;;;;;;;;4998479;28;20029;-90
2022/01/05 07:34:22;;;;;;;38.90;25.52;;;;;;;;;;4997297;28;20031;-90
2022/01/05 07:36:48;;;;;;;44.53;29.50;;;;;;;;;;4998139;28;20081;-90
2022/01/05 07:39:14;;;;;;;37.60;23.35;;;;;;;;;;4997139;28;20033;-90
2022/01/05 07:41:40;;;;;;;40.88;21.67;;;;;;;;;;4998255;28;20333;-90
2022/01/05 07:44:07;;;;;;;50.47;22.88;;;;;;;;;;4997173;28;20040;-90
2022/01/05 07:46:33;;;;;;;51.85;23.73;;;;;;;;;;4998554;28;20023;-90
2022/01/05 07:49:01;;;;;;;43.08;23.95;;;;;;;;;;4998137;28;20026;-91
2022/01/05 07:51:29;;;;;;;41.15;23.50;;;;;;;;;;4998853;28;20095;-92
2022/01/05 07:53:55;;;;;;;40.75;22.58;;;;;;;;;;4998408;28;20026;-90
2022/01/05 07:56:22;;;;;;;46.28;26.10;;;;;;;;;;4998410;28;20039;-90
2022/01/05 07:58:49;;;;;;;40.58;22.65;;;;;;;;;;4998380;28;20027;-91
2022/01/05 08:01:18;;;;;;;34.45;20.02;;;;;;;;;;4997214;28;20027;-91
2022/01/05 08:03:44;;;;;;;31.98;19.20;;;;;;;;;;4996933;28;20448;-90
2022/01/05 08:06:10;;;;;;;28.77;17.02;;;;;;;;;;4997136;28;20037;-91
2022/01/05 08:08:36;;;;;;;30.98;17.58;;;;;;;;;;4997944;28;20037;-91
2022/01/05 08:11:02;;;;;;;43.15;21.30;;;;;;;;;;4997938;28;20026;-93
2022/01/05 08:13:28;;;;;;;44.92;22.40;;;;;;;;;;4998920;28;20402;-91
2022/01/05 08:15:55;;;;;;;40.05;20.70;;;;;;;;;;4996984;28;20341;-90
2022/01/05 08:18:21;;;;;;;46.42;21.80;;;;;;;;;;4997989;28;20026;-90
2022/01/05 08:20:47;;;;;;;40.22;19.20;;;;;;;;;;4997729;28;20032;-91
2022/01/05 08:23:17;;;;;;;51.95;20.90;;;;;;;;;;4996839;28;20056;-93
2022/01/05 08:25:43;;;;;;;53.08;22.27;;;;;;;;;;4997962;28;20038;-93
2022/01/05 08:28:11;;;;;;;38.65;20.38;;;;;;;;;;4997407;28;20065;-93
2022/01/05 08:30:38;;;;;;;50.45;18.88;;;;;;;;;;4998261;28;20053;-90
2022/01/05 08:33:04;;;;;;;39.83;19.48;;;;;;;;;;4997704;28;20113;-88
2022/01/05 08:35:32;;;;;;;42.65;20.58;;;;;;;;;;4997734;28;20042;-88
2022/01/05 08:37:59;;;;;;;41.83;20.42;;;;;;;;;;5000920;28;20069;-88
2022/01/05 08:40:26;;;;;;;34.03;18.73;;;;;;;;;;5001261;28;20023;-88
2022/01/05 08:42:53;;;;;;;32.38;18.50;;;;;;;;;;5000140;28;20141;-88
2022/01/05 08:45:20;;;;;;;33.78;19.23;;;;;;;;;;5001391;28;20149;-87
2022/01/05 08:47:50;;;;;;;47.17;21.35;;;;;;;;;;5001160;28;20106;-88
2022/01/05 08:50:16;;;;;;;31.90;19.02;;;;;;;;;;5000118;28;20029;-87
2022/01/05 08:52:43;;;;;;;28.67;17.83;;;;;;;;;;5000871;28;20073;-88
2022/01/05 08:55:09;;;;;;;34.33;19.98;;;;;;;;;;5000150;28;20045;-87
2022/01/05 08:57:35;;;;;;;35.83;20.00;;;;;;;;;;4999661;28;20035;-87
2022/01/05 09:00:02;;;;;;;34.50;18.38;;;;;;;;;;5001060;28;20477;-87
2022/01/05 09:02:28;;;;;;;33.55;18.25;;;;;;;;;;5000824;28;20050;-87
2022/01/05 09:04:54;;;;;;;31.05;17.90;;;;;;;;;;5000795;28;20050;-87
2022/01/05 09:07:20;;;;;;;32.58;19.92;;;;;;;;;;5000309;28;20023;-87
2022/01/05 09:09:46;;;;;;;35.55;20.15;;;;;;;;;;5000547;28;20414;-88
2022/01/05 09:12:12;;;;;;;30.23;18.70;;;;;;;;;;5000556;28;20026;-88
2022/01/05 09:14:39;;;;;;;33.72;19.52;;;;;;;;;;5000552;28;20101;-88
2022/01/05 09:17:06;;;;;;;33.95;21.38;;;;;;;;;;4999099;28;20034;-87
2022/01/05 09:19:32;;;;;;;41.58;24.48;;;;;;;;;;4999450;28;20026;-86
2022/01/05 09:21:58;;;;;;;36.30;22.13;;;;;;;;;;4999470;28;20038;-88
2022/01/05 09:24:25;;;;;;;30.58;18.58;;;;;;;;;;5000550;28;20317;-87
2022/01/05 09:26:51;;;;;;;26.33;16.58;;;;;;;;;;4999421;28;20038;-87
2022/01/05 09:29:18;;;;;;;31.73;19.08;;;;;;;;;;4999335;28;20547;-88
2022/01/05 09:31:44;;;;;;;59.45;30.40;;;;;;;;;;5000253;28;20033;-88
2022/01/05 09:34:11;;;;;;;46.67;23.05;;;;;;;;;;4999297;28;20447;-88
2022/01/05 09:36:43;;;;;;;48.90;28.05;;;;;;;;;;4999226;28;20043;-88
2022/01/05 09:42:05;;;;;;;35.88;21.02;;;;;;;;;;4959737;29;20126;-88
2022/01/05 09:44:35;;;;;;;35.15;19.98;;;;;;;;;;4959565;29;20057;-87
2022/01/05 09:47:01;;;;;;;37.78;23.15;;;;;;;;;;4943537;29;20045;-88
2022/01/05 09:49:33;;;;;;;37.50;22.65;;;;;;;;;;4959640;29;20102;-88
2022/01/05 09:52:03;;;;;;;30.15;17.63;;;;;;;;;;4959398;28;20306;-88
2022/01/05 09:54:29;;;;;;;32.60;17.73;;;;;;;;;;4959634;28;20023;-87
2022/01/05 09:56:55;;;;;;;30.52;16.45;;;;;;;;;;4959643;29;20031;-87
2022/01/05 09:59:21;;;;;;;28.88;17.73;;;;;;;;;;4959547;29;20039;-90
2022/01/05 10:01:47;;;;;;;31.20;16.80;;;;;;;;;;4942691;29;20039;-87
2022/01/05 10:04:14;;;;;;;29.05;16.63;;;;;;;;;;4959101;29;20046;-87
2022/01/05 10:06:40;;;;;;;28.50;15.75;;;;;;;;;;4959252;29;20067;-88
2022/01/05 10:09:07;;;;;;;29.20;17.00;;;;;;;;;;4959065;28;20020;-86
2022/01/05 10:11:34;;;;;;;30.80;17.17;;;;;;;;;;4958905;29;20375;-87
2022/01/05 10:14:00;;;;;;;30.23;18.38;;;;;;;;;;4942718;29;20481;-87
2022/01/05 10:16:26;;;;;;;29.38;18.00;;;;;;;;;;4958930;29;20039;-87
2022/01/05 10:18:52;;;;;;;32.45;20.15;;;;;;;;;;4978060;28;20077;-87
2022/01/05 10:21:18;;;;;;;34.47;18.90;;;;;;;;;;4999378;28;20037;-87
2022/01/05 10:23:49;;;;;;;45.85;20.88;;;;;;;;;;4999388;28;20148;-87
2022/01/05 10:26:23;;;;;;;32.25;17.85;;;;;;;;;;4999413;28;20109;-88
2022/01/05 10:28:50;;;;;;;33.63;18.75;;;;;;;;;;4999187;28;20409;-87
2022/01/05 10:31:17;;;;;;;30.05;16.92;;;;;;;;;;4998038;28;20077;-87
2022/01/05 10:33:43;;;;;;;33.60;17.83;;;;;;;;;;4999067;28;20032;-88
2022/01/05 10:36:10;;;;;;;32.35;18.52;;;;;;;;;;4997943;28;20037;-87
2022/01/05 10:38:36;;;;;;;31.02;17.25;;;;;;;;;;4998061;28;20355;-86
2022/01/05 10:41:18;;;;;;;27.58;18.50;;;;;;;;;;4999055;28;20464;-87
2022/01/05 10:44:06;;;;;;;33.92;21.30;;;;;;;;;;4998982;28;20037;-87
2022/01/05 10:46:33;;;;;;;31.83;17.35;;;;;;;;;;4998201;28;20025;-88
2022/01/05 10:49:00;;;;;;;33.90;17.67;;;;;;;;;;4997953;28;20030;-87
2022/01/05 10:51:33;;;;;;;32.60;17.75;;;;;;;;;;4998502;28;20018;-87
2022/01/05 10:54:11;;;;;;;33.17;17.23;;;;;;;;;;4998041;28;20027;-87
2022/01/05 10:56:39;;;;;;;26.90;16.88;;;;;;;;;;4998630;28;20058;-87
2022/01/05 10:59:05;;;;;;;29.65;16.52;;;;;;;;;;4997452;28;20030;-87
2022/01/05 11:01:32;;;;;;;25.70;16.85;;;;;;;;;;4998719;28;20023;-88
2022/01/05 11:03:58;;;;;;;33.35;16.85;;;;;;;;;;4998667;28;20042;-87
2022/01/05 11:06:25;;;;;;;51.60;21.45;;;;;;;;;;4997654;28;20042;-88
2022/01/05 11:08:51;;;;;;;65.25;26.95;;;;;;;;;;4998811;28;20038;-89
2022/01/05 11:11:49;;;;;;;67.68;26.05;;;;;;;;;;4998574;28;20026;-88
2022/01/05 11:14:19;;;;;;;49.47;19.75;;;;;;;;;;4958245;29;20185;-87
2022/01/05 11:16:47;;;;;;;98.43;31.23;;;;;;;;;;4958068;29;20031;-87
2022/01/05 11:19:14;;;;;;;104.80;33.85;;;;;;;;;;4941977;29;20039;-88
2022/01/05 11:21:41;;;;;;;63.88;29.95;;;;;;;;;;4958033;29;20038;-88
2022/01/05 11:24:07;;;;;;;52.17;27.88;;;;;;;;;;4957951;28;20046;-87
2022/01/05 11:26:36;;;;;;;42.50;24.25;;;;;;;;;;4942133;29;20035;-88
2022/01/05 11:29:05;;;;;;;47.88;26.65;;;;;;;;;;4958134;29;20019;-88
2022/01/05 11:31:32;;;;;;;67.15;30.55;;;;;;;;;;4958025;29;20035;-88
2022/01/05 11:33:59;;;;;;;35.55;24.38;;;;;;;;;;4941926;29;20445;-88
2022/01/05 11:36:26;;;;;;;27.65;18.02;;;;;;;;;;4957750;29;20027;-88
2022/01/05 11:38:52;;;;;;;24.95;15.98;;;;;;;;;;4957713;28;20126;-88
2022/01/05 11:41:19;;;;;;;24.23;15.80;;;;;;;;;;4957827;29;20070;-88
2022/01/05 11:43:46;;;;;;;23.35;14.10;;;;;;;;;;4957792;28;20371;-88
2022/01/05 11:46:16;;;;;;;22.45;15.63;;;;;;;;;;4957881;29;20032;-88
2022/01/05 11:48:57;;;;;;;25.77;14.13;;;;;;;;;;4957830;29;20059;-88
2022/01/05 11:51:48;;;;;;;26.92;18.25;;;;;;;;;;4991973;28;20030;-88
2022/01/05 11:54:19;;;;;;;32.92;18.55;;;;;;;;;;4981270;28;20129;-88
2022/01/05 11:56:57;;;;;;;29.35;16.20;;;;;;;;;;4997276;28;20321;-88
2022/01/05 11:59:35;;;;;;;29.63;18.15;;;;;;;;;;4998019;28;20034;-88
2022/01/05 12:02:12;;;;;;;34.75;18.15;;;;;;;;;;4996937;28;20049;-88
2022/01/05 12:04:56;;;;;;;32.45;19.25;;;;;;;;;;4997994;28;20077;-88
2022/01/05 12:07:38;;;;;;;35.78;20.77;;;;;;;;;;4997819;28;20029;-87
2022/01/05 12:10:20;;;;;;;35.90;22.30;;;;;;;;;;5016802;28;20030;-87
2022/01/05 12:12:52;;;;;;;34.83;22.58;;;;;;;;;;5020412;28;20030;-87
2022/01/05 12:15:18;;;;;;;;;;;;;;;;;;5021916;28;20049;-87
2022/01/05 12:18:00;;;;;;;37.78;18.38;;;;;;;;;;5021507;28;19944;-87
2022/01/05 12:20:33;;;;;;;24.90;15.18;;;;;;;;;;5020963;28;20025;-88
2022/01/05 12:23:15;;;;;;;23.27;14.93;;;;;;;;;;5020185;28;20033;-88
2022/01/05 12:26:01;;;;;;;30.38;15.80;;;;;;;;;;5021332;28;20040;-87
2022/01/05 12:28:28;;;;;;;25.73;15.90;;;;;;;;;;5020013;28;20161;-88
2022/01/05 12:30:54;;;;;;;24.73;15.82;;;;;;;;;;5020184;28;20030;-87
2022/01/05 12:33:20;;;;;;;24.45;15.25;;;;;;;;;;5021024;28;20030;-88
2022/01/05 12:35:55;;;;;;;26.27;16.15;;;;;;;;;;5020179;28;20022;-88
2022/01/05 12:38:39;;;;;;;28.20;16.00;;;;;;;;;;5020820;28;20092;-87
2022/01/05 12:41:23;;;;;;;35.30;19.63;;;;;;;;;;5020818;28;20495;-87
2022/01/05 12:43:50;;;;;;;33.13;18.83;;;;;;;;;;5019729;28;20037;-87
2022/01/05 12:46:32;;;;;;;36.95;18.83;;;;;;;;;;5019852;28;20033;-88
2022/01/05 12:48:59;;;;;;;27.60;18.75;;;;;;;;;;5019855;28;20044;-88
2022/01/05 12:51:25;;;;;;;26.40;17.52;;;;;;;;;;5020699;28;20022;-87
2022/01/05 12:53:55;;;;;;;28.38;17.88;;;;;;;;;;5020652;28;20030;-87
2022/01/05 12:56:25;;;;;;;31.85;20.67;;;;;;;;;;5020457;28;20026;-89
2022/01/05 12:58:52;;;;;;;30.35;21.08;;;;;;;;;;5020536;28;20057;-88
2022/01/05 13:01:18;;;;;;;33.90;22.73;;;;;;;;;;5020791;28;20149;-88
2022/01/05 13:03:45;;;;;;;43.38;28.45;;;;;;;;;;5019403;28;20026;-87
2022/01/05 13:06:14;;;;;;;50.25;34.88;;;;;;;;;;5019614;28;20030;-87
2022/01/05 13:08:47;;;;;;;59.30;42.53;;;;;;;;;;5019462;28;20022;-87
2022/01/05 13:11:32;;;;;;;57.63;40.70;;;;;;;;;;5020202;28;20057;-87
2022/01/05 13:14:10;;;;;;;43.60;29.27;;;;;;;;;;5020230;28;20056;-88
2022/01/05 13:16:36;;;;;;;37.08;24.05;;;;;;;;;;5019279;28;20037;-88
2022/01/05 13:19:02;;;;;;;44.53;24.42;;;;;;;;;;5019378;28;20057;-88
2022/01/05 13:21:45;;;;;;;39.60;24.85;;;;;;;;;;5019581;28;20113;-89
2022/01/05 13:24:11;;;;;;;48.15;28.25;;;;;;;;;;5019139;28;20030;-89
2022/01/05 13:26:37;;;;;;;38.53;27.10;;;;;;;;;;5019904;28;20029;-88
2022/01/05 13:29:22;;;;;;;48.40;29.67;;;;;;;;;;5019006;28;20109;-89
2022/01/05 13:32:09;;;;;;;47.30;30.58;;;;;;;;;;5018976;28;20049;-89
2022/01/05 13:34:36;;;;;;;51.35;32.60;;;;;;;;;;5020232;28;20034;-88
2022/01/05 13:37:03;;;;;;;47.85;30.45;;;;;;;;;;5019820;28;20049;-89
2022/01/05 13:39:43;;;;;;;50.40;30.27;;;;;;;;;;5019444;28;20412;-88
2022/01/05 13:42:10;;;;;;;47.42;30.20;;;;;;;;;;5019801;28;20030;-89
2022/01/05 13:44:38;;;;;;;50.72;31.10;;;;;;;;;;5019810;28;20404;-89
2022/01/05 13:47:07;;;;;;;53.75;30.85;;;;;;;;;;5020005;28;20068;-88
2022/01/05 13:49:33;;;;;;;45.22;28.38;;;;;;;;;;5018816;28;20313;-87
2022/01/05 13:52:11;;;;;;;47.58;29.02;;;;;;;;;;5018538;28;20030;-88
2022/01/05 13:54:38;;;;;;;46.22;30.25;;;;;;;;;;5019633;28;20101;-88
2022/01/05 13:57:05;;;;;;;49.55;29.23;;;;;;;;;;5019384;28;20416;-88
2022/01/05 13:59:38;;;;;;;42.97;27.70;;;;;;;;;;5018581;28;20062;-88
2022/01/05 14:02:08;;;;;;;47.75;27.40;;;;;;;;;;5019083;28;20032;-88
2022/01/05 14:04:45;;;;;;;49.40;26.65;;;;;;;;;;5018470;28;20462;-87
2022/01/05 14:07:16;;;;;;;44.67;25.75;;;;;;;;;;5019389;28;20408;-88
2022/01/05 14:09:42;;;;;;;46.55;27.38;;;;;;;;;;5018137;28;20447;-88
2022/01/05 14:12:27;;;;;;;47.00;27.13;;;;;;;;;;5018173;28;20100;-88
2022/01/05 14:14:54;;;;;;;46.92;27.42;;;;;;;;;;5018101;28;20030;-89
2022/01/05 14:17:20;;;;;;;47.55;28.55;;;;;;;;;;5018254;28;20371;-88
2022/01/05 14:19:46;;;;;;;46.90;26.98;;;;;;;;;;5018803;28;20029;-88
2022/01/05 14:22:19;;;;;;;41.38;24.05;;;;;;;;;;5018959;28;20030;-88
2022/01/05 14:24:46;;;;;;;54.08;29.45;;;;;;;;;;5013001;28;20365;-88
2022/01/05 14:27:16;;;;;;;58.63;30.67;;;;;;;;;;4999419;28;20069;-88
2022/01/05 14:29:43;;;;;;;41.60;24.98;;;;;;;;;;4999570;28;20022;-88